createdAt,value
2023-03-05T00:01:04.051Z,4.50
2023-03-05T00:06:06.346Z,4.45
2023-03-05T00:11:10.939Z,4.52
2023-03-05T00:16:15.334Z,4.51
2023-03-05T00:21:21.053Z,4.57
2023-03-05T00:26:26.102Z,4.55
2023-03-05T00:31:31.153Z,4.59
2023-03-05T00:36:33.239Z,4.56
2023-03-05T00:41:35.006Z,4.45
2023-03-05T00:46:37.937Z,4.43
2023-03-05T00:51:39.771Z,4.36
2023-03-05T00:56:41.626Z,4.32
2023-03-05T01:01:43.485Z,4.31
2023-03-05T01:06:46.711Z,4.36
2023-03-05T01:11:48.881Z,4.39
2023-03-05T01:16:50.666Z,4.40
2023-03-05T01:21:52.511Z,4.39
2023-03-05T01:26:54.270Z,4.26
2023-03-05T01:31:56.138Z,4.28
2023-03-05T01:36:57.944Z,4.18
2023-03-05T01:41:59.867Z,4.09
2023-03-05T01:47:01.757Z,4.07
2023-03-05T01:52:06.520Z,4.05
2023-03-05T01:57:14.131Z,4.05
2023-03-05T02:02:17.330Z,4.04
2023-03-05T02:07:19.317Z,4.11
2023-03-05T02:12:21.382Z,4.00
2023-03-05T02:17:23.335Z,4.02
2023-03-05T02:22:25.430Z,4.02
2023-03-05T02:27:35.147Z,3.97
2023-03-05T02:32:36.953Z,3.88
2023-03-05T02:37:39.453Z,3.71
2023-03-05T02:42:42.916Z,3.61
2023-03-05T02:47:46.601Z,3.65
2023-03-05T02:52:48.523Z,3.61
2023-03-05T02:57:52.030Z,3.63
2023-03-05T03:02:53.984Z,3.61
2023-03-05T03:07:55.761Z,3.61
2023-03-05T03:12:57.779Z,3.68
2023-03-05T03:17:59.540Z,3.62
2023-03-05T03:23:01.898Z,3.68
2023-03-05T03:28:03.670Z,3.61
2023-03-05T03:33:05.479Z,3.54
2023-03-05T03:38:07.236Z,3.56
2023-03-05T03:43:09.157Z,3.49
2023-03-05T03:48:11.599Z,3.47
2023-03-05T03:53:14.427Z,3.44
2023-03-05T03:58:16.268Z,3.52
2023-03-05T04:03:18.293Z,3.44
2023-03-05T04:08:20.101Z,3.44
2023-03-05T04:13:21.956Z,3.47
2023-03-05T04:18:23.829Z,3.50
2023-03-05T04:23:25.616Z,3.46
2023-03-05T04:28:27.599Z,3.46
2023-03-05T04:33:29.502Z,3.40
2023-03-05T04:38:31.201Z,3.45
2023-03-05T04:43:33.663Z,3.45
2023-03-05T04:48:35.463Z,3.47
2023-03-05T04:53:37.234Z,3.41
2023-03-05T04:58:39.146Z,3.36
2023-03-05T05:03:41.035Z,3.29
2023-03-05T05:08:43.557Z,3.25
2023-03-05T05:13:45.507Z,3.21
2023-03-05T05:18:47.340Z,3.15
2023-03-05T05:23:49.171Z,3.10
2023-03-05T05:28:50.923Z,3.08
2023-03-05T05:33:52.738Z,3.07
2023-03-05T05:38:54.652Z,3.11
2023-03-05T05:43:56.461Z,3.11
2023-03-05T05:48:58.350Z,3.12
2023-03-05T05:54:00.104Z,3.13
2023-03-05T05:59:01.888Z,3.15
2023-03-05T06:04:03.964Z,3.22
2023-03-05T06:09:06.306Z,3.26
2023-03-05T06:14:08.899Z,3.24
2023-03-05T06:19:15.707Z,3.31
2023-03-05T06:24:19.400Z,3.41
2023-03-05T06:29:21.173Z,3.36
2023-03-05T06:34:23.258Z,3.43
2023-03-05T06:39:25.092Z,3.44
2023-03-05T06:44:26.910Z,3.42
2023-03-05T06:49:28.659Z,3.50
2023-03-05T06:54:30.436Z,3.48
2023-03-05T06:59:32.288Z,3.42
2023-03-05T07:04:34.044Z,3.50
2023-03-05T07:09:42.804Z,3.64
2023-03-05T07:14:44.689Z,3.59
2023-03-05T07:19:46.504Z,3.72
2023-03-05T07:24:48.293Z,3.47
2023-03-05T07:29:50.052Z,3.55
2023-03-05T07:34:51.829Z,3.73
2023-03-05T07:39:53.603Z,3.75
2023-03-05T07:44:55.388Z,3.79
2023-03-05T07:49:57.132Z,3.87
2023-03-05T07:54:58.925Z,4.01
2023-03-05T08:00:00.724Z,3.95
2023-03-05T08:05:02.482Z,3.83
2023-03-05T08:10:05.602Z,3.88
2023-03-05T08:15:08.104Z,3.88
2023-03-05T08:20:11.288Z,4.05
2023-03-05T08:25:13.220Z,4.18
2023-03-05T08:30:18.069Z,4.27
2023-03-05T08:35:20.418Z,4.21
2023-03-05T08:40:22.261Z,4.30
2023-03-05T08:45:24.152Z,4.47
2023-03-05T08:50:26.137Z,4.73
2023-03-05T08:55:28.212Z,4.96
2023-03-05T09:05:51.878Z,4.72
2023-03-05T09:10:53.665Z,4.69
2023-03-05T09:16:01.304Z,4.64
2023-03-05T09:21:10.922Z,4.61
2023-03-05T09:26:15.617Z,4.54
2023-03-05T09:31:17.981Z,4.38
2023-03-05T09:36:25.194Z,4.29
2023-03-05T09:41:37.110Z,4.30
2023-03-05T09:46:55.001Z,4.30
2023-03-05T09:52:03.509Z,4.37
2023-03-05T10:02:34.362Z,4.64
2023-03-05T10:07:43.710Z,5.19
2023-03-05T10:12:50.391Z,5.80
2023-03-05T10:18:16.855Z,6.32
2023-03-05T10:23:33.675Z,6.64
2023-03-05T10:28:41.077Z,6.75
2023-03-05T10:34:22.659Z,6.90
2023-03-05T10:45:23.078Z,6.67
2023-03-05T10:50:26.260Z,6.57
2023-03-05T10:55:28.116Z,6.55
2023-03-05T11:00:29.943Z,6.46
2023-03-05T11:05:36.436Z,6.25
2023-03-05T11:10:38.244Z,5.97
2023-03-05T11:15:40.195Z,5.76
2023-03-05T11:21:21.988Z,5.46
2023-03-05T11:26:23.773Z,5.47
2023-03-05T11:31:31.980Z,5.50
2023-03-05T11:36:34.978Z,5.44
2023-03-05T11:41:58.360Z,5.47
2023-03-05T11:47:07.426Z,5.42
2023-03-05T11:52:27.013Z,5.33
2023-03-05T11:57:35.327Z,5.26
2023-03-05T12:02:37.891Z,5.20
2023-03-05T12:07:45.951Z,5.03
2023-03-05T12:12:54.206Z,4.99
2023-03-05T12:18:09.025Z,4.90
2023-03-05T12:23:15.554Z,5.00
2023-03-05T12:28:43.017Z,5.10
2023-03-05T12:33:44.799Z,5.28
2023-03-05T12:38:48.208Z,5.31
2023-03-05T12:44:05.156Z,5.41
2023-03-05T12:49:19.237Z,5.32
2023-03-05T12:54:29.553Z,5.31
2023-03-05T13:00:05.224Z,5.24
2023-03-05T13:05:29.031Z,5.15
2023-03-05T13:10:30.777Z,5.22
2023-03-05T13:15:32.932Z,5.32
2023-03-05T13:20:40.671Z,5.31
2023-03-05T13:25:43.601Z,5.36
2023-03-05T13:30:54.718Z,5.48
2023-03-05T13:35:56.884Z,5.46
2023-03-05T13:46:34.650Z,5.52
2023-03-05T13:51:44.933Z,5.59
2023-03-05T13:56:51.917Z,5.59
2023-03-05T14:01:54.220Z,5.59
2023-03-05T14:07:01.658Z,5.56
2023-03-05T14:12:15.763Z,5.53
2023-03-05T14:17:27.747Z,5.45
2023-03-05T14:22:35.927Z,5.39
2023-03-05T14:27:37.742Z,5.37
2023-03-05T14:32:39.656Z,5.29
2023-03-05T14:37:45.021Z,5.25
2023-03-05T14:42:49.783Z,4.96
2023-03-05T14:47:53.202Z,4.94
2023-03-05T14:52:58.050Z,4.76
2023-03-05T14:58:07.081Z,4.64
2023-03-05T15:03:13.236Z,4.63
2023-03-05T15:08:18.798Z,4.40
2023-03-05T15:13:21.639Z,4.19
2023-03-05T15:18:23.851Z,4.12
2023-03-05T15:23:25.622Z,4.10
2023-03-05T15:28:27.378Z,4.26
2023-03-05T15:33:43.045Z,4.20
2023-03-05T15:38:46.751Z,4.23
2023-03-05T15:43:48.534Z,4.28
2023-03-05T15:48:50.390Z,4.43
2023-03-05T15:53:52.256Z,4.56
2023-03-05T15:58:54.074Z,4.48
2023-03-05T16:03:55.887Z,4.48
2023-03-05T16:09:03.614Z,4.42
2023-03-05T16:14:09.221Z,4.39
2023-03-05T16:19:13.854Z,4.45
2023-03-05T16:24:15.810Z,4.52
2023-03-05T16:29:17.783Z,4.53
2023-03-05T16:34:19.731Z,4.54
2023-03-05T16:39:22.446Z,4.59
2023-03-05T16:44:24.529Z,4.57
2023-03-05T16:49:26.310Z,4.62
2023-03-05T16:54:28.164Z,4.53
2023-03-05T16:59:30.017Z,4.58
2023-03-05T17:04:32.024Z,4.54
2023-03-05T17:09:33.895Z,4.54
2023-03-05T17:14:35.784Z,4.60
2023-03-05T17:19:37.676Z,4.68
2023-03-05T17:24:42.885Z,4.66
2023-03-05T17:29:45.717Z,4.72
2023-03-05T17:34:47.524Z,4.70
2023-03-05T17:39:49.426Z,4.75
2023-03-05T17:44:51.559Z,4.85
2023-03-05T17:49:53.353Z,4.78
2023-03-05T17:54:55.327Z,4.78
2023-03-05T17:59:58.006Z,4.80
2023-03-05T18:04:59.794Z,4.76
2023-03-05T18:10:01.659Z,4.71
2023-03-05T18:15:06.181Z,4.63
2023-03-05T18:20:10.040Z,4.73
2023-03-05T18:25:11.822Z,4.80
2023-03-05T18:30:14.022Z,4.90
2023-03-05T18:35:16.908Z,4.95
2023-03-05T18:40:22.584Z,5.04
2023-03-05T18:45:38.054Z,5.05
2023-03-05T18:50:39.965Z,4.98
2023-03-05T18:55:42.947Z,4.83
2023-03-05T19:00:47.116Z,4.74
2023-03-05T19:05:50.289Z,4.81
2023-03-05T19:10:52.102Z,4.86
2023-03-05T19:21:23.914Z,4.90
2023-03-05T19:26:25.777Z,4.82
2023-03-05T19:31:28.051Z,4.80
2023-03-05T19:36:31.194Z,4.77
2023-03-05T19:41:33.235Z,4.71
2023-03-05T19:46:35.221Z,4.65
2023-03-05T19:51:37.140Z,4.54
2023-03-05T19:56:40.590Z,4.48
2023-03-05T20:01:49.280Z,4.44
2023-03-05T20:06:51.213Z,4.55
2023-03-05T20:11:53.156Z,4.64
2023-03-05T20:16:54.936Z,4.70
2023-03-05T20:21:56.718Z,4.72
2023-03-05T20:27:00.088Z,4.65
2023-03-05T20:32:02.228Z,4.54
2023-03-05T20:37:05.082Z,4.38
2023-03-05T20:42:06.863Z,4.33
2023-03-05T20:47:32.334Z,4.28
2023-03-05T20:52:34.144Z,4.26
2023-03-05T20:57:35.915Z,4.28
2023-03-05T21:02:37.779Z,4.31
2023-03-05T21:07:40.309Z,4.31
2023-03-05T21:12:43.570Z,4.26
2023-03-05T21:17:45.828Z,4.25
2023-03-05T21:22:47.680Z,4.20
2023-03-05T21:28:08.339Z,4.13
2023-03-05T21:33:23.188Z,4.11
2023-03-05T21:38:25.722Z,4.11
2023-03-05T21:43:28.548Z,4.10
2023-03-05T21:48:31.184Z,4.11
2023-03-05T21:53:32.954Z,4.15
2023-03-05T21:58:35.478Z,4.13
2023-03-05T22:03:37.400Z,4.13
2023-03-05T22:08:39.259Z,4.16
2023-03-05T22:13:41.703Z,4.10
2023-03-05T22:18:43.465Z,4.08
2023-03-05T22:23:45.413Z,4.08
2023-03-05T22:28:47.178Z,4.12
2023-03-05T22:33:50.107Z,4.08
2023-03-05T22:38:52.224Z,4.08
2023-03-05T22:43:54.037Z,4.06
2023-03-05T22:48:55.823Z,4.09
2023-03-05T22:53:57.621Z,4.10
2023-03-05T22:58:59.441Z,4.11
2023-03-05T23:04:08.797Z,4.15
2023-03-05T23:09:10.777Z,4.20
2023-03-05T23:14:12.595Z,4.21
2023-03-05T23:19:14.369Z,4.23
2023-03-05T23:24:16.112Z,4.20
2023-03-05T23:29:18.161Z,4.21
2023-03-05T23:34:19.944Z,4.21
2023-03-05T23:39:21.683Z,4.21
2023-03-05T23:44:23.476Z,4.21
2023-03-05T23:49:25.358Z,4.24
2023-03-05T23:54:27.535Z,4.24
2023-03-05T23:59:29.307Z,4.25
